sensor_id;sensor_type;location;lat;lon;timestamp;P1;durP1;ratioP1;P2;durP2;ratioP2
71572;SDS011;59408;51.032;9.410;2023-12-20T00:00:27;8.35;;;3.65;;
71572;SDS011;59408;51.032;9.410;2023-12-20T00:02:53;8.98;;;3.90;;
71572;SDS011;59408;51.032;9.410;2023-12-20T00:05:20;8.82;;;4.22;;
71572;SDS011;59408;51.032;9.410;2023-12-20T00:07:46;9.52;;;4.45;;
71572;SDS011;59408;51.032;9.410;2023-12-20T00:10:14;9.40;;;4.00;;
71572;SDS011;59408;51.032;9.410;2023-12-20T00:12:42;9.40;;;3.95;;
71572;SDS011;59408;51.032;9.410;2023-12-20T00:15:08;9.57;;;4.35;;
71572;SDS011;59408;51.032;9.410;2023-12-20T00:17:35;9.07;;;4.15;;
71572;SDS011;59408;51.032;9.410;2023-12-20T00:20:02;9.68;;;4.00;;
71572;SDS011;59408;51.032;9.410;2023-12-20T00:22:29;9.13;;;3.90;;
71572;SDS011;59408;51.032;9.410;2023-12-20T00:24:55;9.77;;;4.30;;
71572;SDS011;59408;51.032;9.410;2023-12-20T00:27:22;8.70;;;4.00;;
71572;SDS011;59408;51.032;9.410;2023-12-20T00:29:50;8.95;;;4.00;;
71572;SDS011;59408;51.032;9.410;2023-12-20T00:32:16;8.18;;;3.75;;
71572;SDS011;59408;51.032;9.410;2023-12-20T00:34:43;9.73;;;3.53;;
71572;SDS011;59408;51.032;9.410;2023-12-20T00:37:09;7.80;;;3.92;;
71572;SDS011;59408;51.032;9.410;2023-12-20T00:39:36;8.13;;;3.88;;
71572;SDS011;59408;51.032;9.410;2023-12-20T00:42:02;8.15;;;3.88;;
71572;SDS011;59408;51.032;9.410;2023-12-20T00:44:29;7.63;;;3.70;;
71572;SDS011;59408;51.032;9.410;2023-12-20T00:46:57;8.30;;;3.57;;
71572;SDS011;59408;51.032;9.410;2023-12-20T00:49:24;8.52;;;3.80;;
71572;SDS011;59408;51.032;9.410;2023-12-20T00:51:50;7.75;;;3.55;;
71572;SDS011;59408;51.032;9.410;2023-12-20T00:54:17;8.82;;;3.58;;
71572;SDS011;59408;51.032;9.410;2023-12-20T00:56:43;8.27;;;3.70;;
71572;SDS011;59408;51.032;9.410;2023-12-20T00:59:10;8.87;;;4.13;;
71572;SDS011;59408;51.032;9.410;2023-12-20T01:01:36;7.45;;;3.30;;
71572;SDS011;59408;51.032;9.410;2023-12-20T01:04:05;7.90;;;3.60;;
71572;SDS011;59408;51.032;9.410;2023-12-20T01:06:31;7.75;;;3.40;;
71572;SDS011;59408;51.032;9.410;2023-12-20T01:08:58;8.48;;;3.85;;
71572;SDS011;59408;51.032;9.410;2023-12-20T01:11:24;9.60;;;3.50;;
71572;SDS011;59408;51.032;9.410;2023-12-20T01:13:51;7.72;;;3.08;;
71572;SDS011;59408;51.032;9.410;2023-12-20T01:16:17;7.45;;;3.70;;
71572;SDS011;59408;51.032;9.410;2023-12-20T01:18:44;7.90;;;3.47;;
71572;SDS011;59408;51.032;9.410;2023-12-20T01:21:12;7.35;;;3.60;;
71572;SDS011;59408;51.032;9.410;2023-12-20T01:23:38;7.47;;;3.20;;
71572;SDS011;59408;51.032;9.410;2023-12-20T01:26:05;7.30;;;3.25;;
71572;SDS011;59408;51.032;9.410;2023-12-20T01:28:31;8.23;;;3.47;;
71572;SDS011;59408;51.032;9.410;2023-12-20T01:30:58;7.65;;;3.65;;
71572;SDS011;59408;51.032;9.410;2023-12-20T01:33:25;8.75;;;4.00;;
71572;SDS011;59408;51.032;9.410;2023-12-20T01:35:51;7.40;;;3.23;;
71572;SDS011;59408;51.032;9.410;2023-12-20T01:38:19;7.63;;;3.30;;
71572;SDS011;59408;51.032;9.410;2023-12-20T01:40:45;7.53;;;3.40;;
71572;SDS011;59408;51.032;9.410;2023-12-20T01:43:12;6.95;;;3.20;;
71572;SDS011;59408;51.032;9.410;2023-12-20T01:45:39;7.88;;;3.50;;
71572;SDS011;59408;51.032;9.410;2023-12-20T01:48:06;8.20;;;3.10;;
71572;SDS011;59408;51.032;9.410;2023-12-20T01:50:35;7.30;;;3.17;;
71572;SDS011;59408;51.032;9.410;2023-12-20T01:53:02;8.10;;;3.67;;
71572;SDS011;59408;51.032;9.410;2023-12-20T01:55:33;7.45;;;3.45;;
71572;SDS011;59408;51.032;9.410;2023-12-20T01:58:02;7.78;;;3.22;;
71572;SDS011;59408;51.032;9.410;2023-12-20T02:00:30;6.90;;;3.20;;
71572;SDS011;59408;51.032;9.410;2023-12-20T02:02:57;8.15;;;3.38;;
71572;SDS011;59408;51.032;9.410;2023-12-20T02:05:27;6.88;;;3.03;;
71572;SDS011;59408;51.032;9.410;2023-12-20T02:07:54;9.82;;;3.50;;
71572;SDS011;59408;51.032;9.410;2023-12-20T02:10:21;7.82;;;3.70;;
71572;SDS011;59408;51.032;9.410;2023-12-20T02:12:49;8.30;;;3.50;;
71572;SDS011;59408;51.032;9.410;2023-12-20T02:15:16;9.68;;;3.83;;
71572;SDS011;59408;51.032;9.410;2023-12-20T02:17:43;7.72;;;3.50;;
71572;SDS011;59408;51.032;9.410;2023-12-20T02:20:10;6.25;;;2.47;;
71572;SDS011;59408;51.032;9.410;2023-12-20T02:22:39;7.28;;;3.13;;
71572;SDS011;59408;51.032;9.410;2023-12-20T02:25:05;8.00;;;3.00;;
71572;SDS011;59408;51.032;9.410;2023-12-20T02:27:33;7.47;;;3.13;;
71572;SDS011;59408;51.032;9.410;2023-12-20T02:30:00;7.25;;;3.30;;
71572;SDS011;59408;51.032;9.410;2023-12-20T02:32:27;7.25;;;2.80;;
71572;SDS011;59408;51.032;9.410;2023-12-20T02:34:55;8.40;;;3.55;;
71572;SDS011;59408;51.032;9.410;2023-12-20T02:37:22;8.07;;;3.20;;
71572;SDS011;59408;51.032;9.410;2023-12-20T02:39:50;8.10;;;3.25;;
71572;SDS011;59408;51.032;9.410;2023-12-20T02:42:16;6.82;;;3.10;;
71572;SDS011;59408;51.032;9.410;2023-12-20T02:44:43;7.55;;;3.03;;
71572;SDS011;59408;51.032;9.410;2023-12-20T02:47:09;7.78;;;3.47;;
71572;SDS011;59408;51.032;9.410;2023-12-20T02:49:36;7.13;;;3.10;;
71572;SDS011;59408;51.032;9.410;2023-12-20T02:52:03;7.93;;;3.50;;
71572;SDS011;59408;51.032;9.410;2023-12-20T02:54:30;7.85;;;3.22;;
71572;SDS011;59408;51.032;9.410;2023-12-20T02:56:58;8.70;;;3.55;;
71572;SDS011;59408;51.032;9.410;2023-12-20T02:59:25;7.82;;;3.50;;
71572;SDS011;59408;51.032;9.410;2023-12-20T03:01:51;8.07;;;3.30;;
71572;SDS011;59408;51.032;9.410;2023-12-20T03:04:18;7.78;;;3.28;;
71572;SDS011;59408;51.032;9.410;2023-12-20T03:06:45;8.13;;;3.63;;
71572;SDS011;59408;51.032;9.410;2023-12-20T03:09:11;7.72;;;3.40;;
71572;SDS011;59408;51.032;9.410;2023-12-20T03:11:38;7.70;;;3.47;;
71572;SDS011;59408;51.032;9.410;2023-12-20T03:14:06;7.87;;;3.60;;
71572;SDS011;59408;51.032;9.410;2023-12-20T03:16:32;9.57;;;3.90;;
71572;SDS011;59408;51.032;9.410;2023-12-20T03:19:02;8.02;;;3.88;;
71572;SDS011;59408;51.032;9.410;2023-12-20T03:21:29;7.50;;;3.30;;
71572;SDS011;59408;51.032;9.410;2023-12-20T03:23:56;7.10;;;2.97;;
71572;SDS011;59408;51.032;9.410;2023-12-20T03:26:22;8.50;;;3.40;;
71572;SDS011;59408;51.032;9.410;2023-12-20T03:28:49;7.93;;;3.45;;
71572;SDS011;59408;51.032;9.410;2023-12-20T03:31:17;8.60;;;3.80;;
71572;SDS011;59408;51.032;9.410;2023-12-20T03:33:43;8.35;;;3.80;;
71572;SDS011;59408;51.032;9.410;2023-12-20T03:36:10;8.32;;;3.60;;
71572;SDS011;59408;51.032;9.410;2023-12-20T03:38:36;8.03;;;3.50;;
71572;SDS011;59408;51.032;9.410;2023-12-20T03:41:04;8.15;;;3.50;;
71572;SDS011;59408;51.032;9.410;2023-12-20T03:43:30;7.28;;;3.40;;
71572;SDS011;59408;51.032;9.410;2023-12-20T03:45:57;8.25;;;3.30;;
71572;SDS011;59408;51.032;9.410;2023-12-20T03:48:25;7.13;;;3.30;;
71572;SDS011;59408;51.032;9.410;2023-12-20T03:50:51;8.00;;;3.40;;
71572;SDS011;59408;51.032;9.410;2023-12-20T03:53:18;7.88;;;3.13;;
71572;SDS011;59408;51.032;9.410;2023-12-20T03:55:45;7.97;;;3.00;;
71572;SDS011;59408;51.032;9.410;2023-12-20T03:58:11;8.07;;;3.38;;
71572;SDS011;59408;51.032;9.410;2023-12-20T04:00:38;8.18;;;3.50;;
71572;SDS011;59408;51.032;9.410;2023-12-20T04:03:05;7.37;;;3.00;;
71572;SDS011;59408;51.032;9.410;2023-12-20T04:05:32;7.68;;;3.10;;
71572;SDS011;59408;51.032;9.410;2023-12-20T04:07:59;7.43;;;2.88;;
71572;SDS011;59408;51.032;9.410;2023-12-20T04:10:27;6.45;;;2.47;;
71572;SDS011;59408;51.032;9.410;2023-12-20T04:12:53;6.80;;;2.50;;
71572;SDS011;59408;51.032;9.410;2023-12-20T04:15:20;7.07;;;2.57;;
71572;SDS011;59408;51.032;9.410;2023-12-20T04:17:46;7.03;;;2.30;;
71572;SDS011;59408;51.032;9.410;2023-12-20T04:20:13;6.10;;;2.40;;
71572;SDS011;59408;51.032;9.410;2023-12-20T04:22:41;6.38;;;2.30;;
71572;SDS011;59408;51.032;9.410;2023-12-20T04:25:08;6.25;;;2.42;;
71572;SDS011;59408;51.032;9.410;2023-12-20T04:27:35;5.53;;;1.97;;
71572;SDS011;59408;51.032;9.410;2023-12-20T04:30:01;10.00;;;2.40;;
71572;SDS011;59408;51.032;9.410;2023-12-20T04:32:28;6.15;;;2.45;;
71572;SDS011;59408;51.032;9.410;2023-12-20T04:34:54;5.60;;;2.35;;
71572;SDS011;59408;51.032;9.410;2023-12-20T04:37:21;6.72;;;2.60;;
71572;SDS011;59408;51.032;9.410;2023-12-20T04:39:49;7.87;;;2.40;;
71572;SDS011;59408;51.032;9.410;2023-12-20T04:42:15;6.43;;;2.40;;
71572;SDS011;59408;51.032;9.410;2023-12-20T04:44:42;5.47;;;2.30;;
71572;SDS011;59408;51.032;9.410;2023-12-20T04:47:09;6.90;;;2.47;;
71572;SDS011;59408;51.032;9.410;2023-12-20T04:49:35;6.68;;;2.78;;
71572;SDS011;59408;51.032;9.410;2023-12-20T04:52:02;6.93;;;2.50;;
71572;SDS011;59408;51.032;9.410;2023-12-20T04:54:29;7.90;;;2.33;;
71572;SDS011;59408;51.032;9.410;2023-12-20T04:56:56;8.68;;;2.40;;
71572;SDS011;59408;51.032;9.410;2023-12-20T04:59:23;7.13;;;2.50;;
71572;SDS011;59408;51.032;9.410;2023-12-20T05:01:49;7.63;;;2.50;;
71572;SDS011;59408;51.032;9.410;2023-12-20T05:04:16;6.47;;;2.00;;
71572;SDS011;59408;51.032;9.410;2023-12-20T05:06:43;6.25;;;2.33;;
71572;SDS011;59408;51.032;9.410;2023-12-20T05:09:09;6.40;;;2.28;;
71572;SDS011;59408;51.032;9.410;2023-12-20T05:11:36;6.82;;;2.20;;
71572;SDS011;59408;51.032;9.410;2023-12-20T05:14:04;7.20;;;2.50;;
71572;SDS011;59408;51.032;9.410;2023-12-20T05:16:30;6.73;;;2.30;;
71572;SDS011;59408;51.032;9.410;2023-12-20T05:18:57;7.78;;;2.58;;
71572;SDS011;59408;51.032;9.410;2023-12-20T05:21:23;7.38;;;2.90;;
71572;SDS011;59408;51.032;9.410;2023-12-20T05:23:50;8.18;;;3.00;;
71572;SDS011;59408;51.032;9.410;2023-12-20T05:26:16;8.00;;;3.28;;
71572;SDS011;59408;51.032;9.410;2023-12-20T05:28:43;7.87;;;3.13;;
71572;SDS011;59408;51.032;9.410;2023-12-20T05:31:11;7.95;;;3.00;;
71572;SDS011;59408;51.032;9.410;2023-12-20T05:33:38;9.70;;;3.22;;
71572;SDS011;59408;51.032;9.410;2023-12-20T05:36:04;12.18;;;3.55;;
71572;SDS011;59408;51.032;9.410;2023-12-20T05:38:31;10.27;;;3.25;;
71572;SDS011;59408;51.032;9.410;2023-12-20T05:40:58;11.10;;;3.63;;
71572;SDS011;59408;51.032;9.410;2023-12-20T05:43:25;11.80;;;3.38;;
71572;SDS011;59408;51.032;9.410;2023-12-20T05:45:51;8.15;;;3.28;;
71572;SDS011;59408;51.032;9.410;2023-12-20T05:48:19;9.60;;;3.47;;
71572;SDS011;59408;51.032;9.410;2023-12-20T05:50:46;8.98;;;3.60;;
71572;SDS011;59408;51.032;9.410;2023-12-20T05:53:12;10.23;;;3.73;;
71572;SDS011;59408;51.032;9.410;2023-12-20T05:55:39;11.75;;;3.75;;
71572;SDS011;59408;51.032;9.410;2023-12-20T05:58:05;12.27;;;4.20;;
71572;SDS011;59408;51.032;9.410;2023-12-20T06:00:32;13.65;;;4.35;;
71572;SDS011;59408;51.032;9.410;2023-12-20T06:02:59;9.73;;;4.15;;
71572;SDS011;59408;51.032;9.410;2023-12-20T06:05:27;10.50;;;3.90;;
71572;SDS011;59408;51.032;9.410;2023-12-20T06:07:53;9.15;;;3.63;;
71572;SDS011;59408;51.032;9.410;2023-12-20T06:10:20;12.07;;;4.47;;
71572;SDS011;59408;51.032;9.410;2023-12-20T06:12:47;11.20;;;3.83;;
71572;SDS011;59408;51.032;9.410;2023-12-20T06:15:13;10.95;;;3.90;;
71572;SDS011;59408;51.032;9.410;2023-12-20T06:17:40;10.17;;;4.17;;
71572;SDS011;59408;51.032;9.410;2023-12-20T06:20:07;10.65;;;4.13;;
71572;SDS011;59408;51.032;9.410;2023-12-20T06:22:36;9.90;;;4.13;;
71572;SDS011;59408;51.032;9.410;2023-12-20T06:25:03;12.43;;;4.60;;
71572;SDS011;59408;51.032;9.410;2023-12-20T06:27:30;11.05;;;4.20;;
71572;SDS011;59408;51.032;9.410;2023-12-20T06:29:56;14.70;;;4.10;;
71572;SDS011;59408;51.032;9.410;2023-12-20T06:32:23;12.48;;;4.50;;
71572;SDS011;59408;51.032;9.410;2023-12-20T06:34:50;9.68;;;4.28;;
71572;SDS011;59408;51.032;9.410;2023-12-20T06:37:17;13.55;;;5.00;;
71572;SDS011;59408;51.032;9.410;2023-12-20T06:39:45;11.52;;;4.43;;
71572;SDS011;59408;51.032;9.410;2023-12-20T06:42:11;10.63;;;4.10;;
71572;SDS011;59408;51.032;9.410;2023-12-20T06:44:38;9.57;;;3.50;;
71572;SDS011;59408;51.032;9.410;2023-12-20T06:47:04;11.40;;;4.00;;
71572;SDS011;59408;51.032;9.410;2023-12-20T06:49:31;11.52;;;4.07;;
71572;SDS011;59408;51.032;9.410;2023-12-20T06:51:58;10.23;;;3.92;;
71572;SDS011;59408;51.032;9.410;2023-12-20T06:54:25;11.43;;;3.87;;
71572;SDS011;59408;51.032;9.410;2023-12-20T06:56:53;12.45;;;4.45;;
71572;SDS011;59408;51.032;9.410;2023-12-20T06:59:19;14.50;;;5.13;;
71572;SDS011;59408;51.032;9.410;2023-12-20T07:01:47;10.63;;;4.50;;
71572;SDS011;59408;51.032;9.410;2023-12-20T07:04:14;10.68;;;4.65;;
71572;SDS011;59408;51.032;9.410;2023-12-20T07:06:40;10.20;;;3.77;;
71572;SDS011;59408;51.032;9.410;2023-12-20T07:09:07;11.35;;;3.97;;
71572;SDS011;59408;51.032;9.410;2023-12-20T07:11:33;11.07;;;4.13;;
71572;SDS011;59408;51.032;9.410;2023-12-20T07:14:01;11.10;;;3.80;;
71572;SDS011;59408;51.032;9.410;2023-12-20T07:16:27;9.23;;;3.72;;
71572;SDS011;59408;51.032;9.410;2023-12-20T07:18:54;8.57;;;3.37;;
71572;SDS011;59408;51.032;9.410;2023-12-20T07:21:21;10.55;;;3.25;;
71572;SDS011;59408;51.032;9.410;2023-12-20T07:23:47;11.00;;;3.63;;
71572;SDS011;59408;51.032;9.410;2023-12-20T07:26:14;9.60;;;3.03;;
71572;SDS011;59408;51.032;9.410;2023-12-20T07:28:42;8.82;;;3.00;;
71572;SDS011;59408;51.032;9.410;2023-12-20T07:31:09;11.80;;;3.57;;
71572;SDS011;59408;51.032;9.410;2023-12-20T07:33:36;11.50;;;3.13;;
71572;SDS011;59408;51.032;9.410;2023-12-20T07:36:05;7.53;;;3.33;;
71572;SDS011;59408;51.032;9.410;2023-12-20T07:38:32;8.30;;;3.03;;
71572;SDS011;59408;51.032;9.410;2023-12-20T07:40:59;7.43;;;3.03;;
71572;SDS011;59408;51.032;9.410;2023-12-20T07:43:26;8.43;;;2.53;;
71572;SDS011;59408;51.032;9.410;2023-12-20T07:45:53;9.35;;;2.80;;
71572;SDS011;59408;51.032;9.410;2023-12-20T07:48:20;7.80;;;2.90;;
71572;SDS011;59408;51.032;9.410;2023-12-20T07:50:47;10.00;;;3.00;;
71572;SDS011;59408;51.032;9.410;2023-12-20T07:53:13;7.97;;;2.60;;
71572;SDS011;59408;51.032;9.410;2023-12-20T07:55:40;9.47;;;3.10;;
71572;SDS011;59408;51.032;9.410;2023-12-20T07:58:06;8.50;;;2.95;;
71572;SDS011;59408;51.032;9.410;2023-12-20T08:00:33;10.40;;;3.40;;
71572;SDS011;59408;51.032;9.410;2023-12-20T08:02:59;9.77;;;2.95;;
71572;SDS011;59408;51.032;9.410;2023-12-20T08:05:28;8.95;;;3.50;;
71572;SDS011;59408;51.032;9.410;2023-12-20T08:07:55;9.87;;;3.57;;
71572;SDS011;59408;51.032;9.410;2023-12-20T08:10:22;9.23;;;2.92;;
71572;SDS011;59408;51.032;9.410;2023-12-20T08:12:48;8.10;;;2.95;;
71572;SDS011;59408;51.032;9.410;2023-12-20T08:15:15;13.88;;;5.43;;
71572;SDS011;59408;51.032;9.410;2023-12-20T08:17:41;9.88;;;3.47;;
71572;SDS011;59408;51.032;9.410;2023-12-20T08:20:08;10.83;;;3.67;;
71572;SDS011;59408;51.032;9.410;2023-12-20T08:22:37;10.90;;;3.22;;
71572;SDS011;59408;51.032;9.410;2023-12-20T08:25:03;10.65;;;3.17;;
71572;SDS011;59408;51.032;9.410;2023-12-20T08:27:30;8.75;;;2.97;;
71572;SDS011;59408;51.032;9.410;2023-12-20T08:29:57;10.82;;;3.38;;
71572;SDS011;59408;51.032;9.410;2023-12-20T08:32:24;10.67;;;3.00;;
71572;SDS011;59408;51.032;9.410;2023-12-20T08:34:52;11.30;;;3.30;;
71572;SDS011;59408;51.032;9.410;2023-12-20T08:37:18;10.68;;;3.47;;
71572;SDS011;59408;51.032;9.410;2023-12-20T08:39:46;10.57;;;3.47;;
71572;SDS011;59408;51.032;9.410;2023-12-20T08:42:13;8.90;;;3.03;;
71572;SDS011;59408;51.032;9.410;2023-12-20T08:44:39;9.33;;;3.30;;
71572;SDS011;59408;51.032;9.410;2023-12-20T08:47:06;6.65;;;3.05;;
71572;SDS011;59408;51.032;9.410;2023-12-20T08:49:32;10.57;;;3.33;;
71572;SDS011;59408;51.032;9.410;2023-12-20T08:51:59;10.20;;;2.92;;
71572;SDS011;59408;51.032;9.410;2023-12-20T08:54:25;8.75;;;3.28;;
71572;SDS011;59408;51.032;9.410;2023-12-20T08:56:53;10.40;;;3.27;;
71572;SDS011;59408;51.032;9.410;2023-12-20T08:59:20;11.13;;;3.83;;
71572;SDS011;59408;51.032;9.410;2023-12-20T09:01:46;11.88;;;3.70;;
71572;SDS011;59408;51.032;9.410;2023-12-20T09:04:13;10.07;;;3.78;;
71572;SDS011;59408;51.032;9.410;2023-12-20T09:06:39;15.70;;;6.90;;
71572;SDS011;59408;51.032;9.410;2023-12-20T09:09:08;14.43;;;5.63;;
71572;SDS011;59408;51.032;9.410;2023-12-20T09:11:34;11.07;;;3.88;;
71572;SDS011;59408;51.032;9.410;2023-12-20T09:14:02;9.70;;;3.78;;
71572;SDS011;59408;51.032;9.410;2023-12-20T09:16:28;12.05;;;4.22;;
71572;SDS011;59408;51.032;9.410;2023-12-20T09:18:55;9.10;;;3.65;;
71572;SDS011;59408;51.032;9.410;2023-12-20T09:21:22;11.03;;;3.33;;
71572;SDS011;59408;51.032;9.410;2023-12-20T09:23:49;9.15;;;3.17;;
71572;SDS011;59408;51.032;9.410;2023-12-20T09:26:15;14.15;;;3.70;;
71572;SDS011;59408;51.032;9.410;2023-12-20T09:28:42;8.68;;;3.42;;
71572;SDS011;59408;51.032;9.410;2023-12-20T09:31:10;10.63;;;3.80;;
71572;SDS011;59408;51.032;9.410;2023-12-20T09:33:36;11.07;;;3.27;;
71572;SDS011;59408;51.032;9.410;2023-12-20T09:36:04;11.63;;;3.25;;
71572;SDS011;59408;51.032;9.410;2023-12-20T09:38:31;9.77;;;3.60;;
71572;SDS011;59408;51.032;9.410;2023-12-20T09:40:57;10.93;;;3.80;;
71572;SDS011;59408;51.032;9.410;2023-12-20T09:43:25;10.73;;;3.53;;
71572;SDS011;59408;51.032;9.410;2023-12-20T09:45:52;9.87;;;3.20;;
71572;SDS011;59408;51.032;9.410;2023-12-20T09:48:21;9.45;;;3.08;;
71572;SDS011;59408;51.032;9.410;2023-12-20T09:50:48;11.95;;;3.20;;
71572;SDS011;59408;51.032;9.410;2023-12-20T09:53:19;10.55;;;3.47;;
71572;SDS011;59408;51.032;9.410;2023-12-20T09:55:47;9.07;;;3.17;;
71572;SDS011;59408;51.032;9.410;2023-12-20T09:58:13;9.27;;;3.67;;
71572;SDS011;59408;51.032;9.410;2023-12-20T10:00:40;10.73;;;3.47;;
71572;SDS011;59408;51.032;9.410;2023-12-20T10:03:06;12.63;;;3.22;;
71572;SDS011;59408;51.032;9.410;2023-12-20T10:05:37;10.07;;;2.85;;
71572;SDS011;59408;51.032;9.410;2023-12-20T10:08:09;9.65;;;2.90;;
71572;SDS011;59408;51.032;9.410;2023-12-20T10:10:36;13.00;;;3.23;;
71572;SDS011;59408;51.032;9.410;2023-12-20T10:13:13;10.70;;;3.25;;
71572;SDS011;59408;51.032;9.410;2023-12-20T10:15:40;9.55;;;3.30;;
71572;SDS011;59408;51.032;9.410;2023-12-20T10:18:07;15.65;;;5.43;;
71572;SDS011;59408;51.032;9.410;2023-12-20T10:20:33;12.77;;;3.47;;
71572;SDS011;59408;51.032;9.410;2023-12-20T10:23:02;13.07;;;3.40;;
71572;SDS011;59408;51.032;9.410;2023-12-20T10:25:28;12.73;;;3.53;;
71572;SDS011;59408;51.032;9.410;2023-12-20T10:28:08;13.27;;;3.30;;
71572;SDS011;59408;51.032;9.410;2023-12-20T10:30:36;7.95;;;2.83;;
71572;SDS011;59408;51.032;9.410;2023-12-20T10:33:03;8.25;;;3.20;;
71572;SDS011;59408;51.032;9.410;2023-12-20T10:35:32;10.87;;;3.20;;
71572;SDS011;59408;51.032;9.410;2023-12-20T10:37:58;11.25;;;3.47;;
71572;SDS011;59408;51.032;9.410;2023-12-20T10:40:31;10.15;;;3.60;;
71572;SDS011;59408;51.032;9.410;2023-12-20T10:42:58;9.38;;;3.35;;
71572;SDS011;59408;51.032;9.410;2023-12-20T10:45:25;9.98;;;3.60;;
71572;SDS011;59408;51.032;9.410;2023-12-20T10:47:52;8.43;;;3.30;;
71572;SDS011;59408;51.032;9.410;2023-12-20T10:50:19;11.25;;;3.75;;
71572;SDS011;59408;51.032;9.410;2023-12-20T10:52:46;13.30;;;4.00;;
71572;SDS011;59408;51.032;9.410;2023-12-20T10:55:15;10.30;;;3.75;;
71572;SDS011;59408;51.032;9.410;2023-12-20T10:57:41;9.88;;;3.88;;
71572;SDS011;59408;51.032;9.410;2023-12-20T11:00:09;15.67;;;4.87;;
71572;SDS011;59408;51.032;9.410;2023-12-20T11:02:40;11.40;;;3.58;;
71572;SDS011;59408;51.032;9.410;2023-12-20T11:05:09;9.38;;;3.65;;
71572;SDS011;59408;51.032;9.410;2023-12-20T11:07:40;11.05;;;3.60;;
71572;SDS011;59408;51.032;9.410;2023-12-20T11:10:15;9.88;;;3.70;;
71572;SDS011;59408;51.032;9.410;2023-12-20T11:12:47;11.23;;;3.47;;
71572;SDS011;59408;51.032;9.410;2023-12-20T11:15:18;13.15;;;3.65;;
71572;SDS011;59408;51.032;9.410;2023-12-20T11:17:45;10.52;;;3.65;;
71572;SDS011;59408;51.032;9.410;2023-12-20T11:20:16;12.07;;;3.50;;
71572;SDS011;59408;51.032;9.410;2023-12-20T11:22:51;11.80;;;4.15;;
71572;SDS011;59408;51.032;9.410;2023-12-20T11:25:20;10.20;;;3.87;;
71572;SDS011;59408;51.032;9.410;2023-12-20T11:30:41;17.55;;;4.57;;
71572;SDS011;59408;51.032;9.410;2023-12-20T11:33:09;15.18;;;5.20;;
71572;SDS011;59408;51.032;9.410;2023-12-20T11:35:36;13.45;;;4.60;;
71572;SDS011;59408;51.032;9.410;2023-12-20T11:38:03;13.57;;;4.47;;
71572;SDS011;59408;51.032;9.410;2023-12-20T11:40:31;16.58;;;4.65;;
71572;SDS011;59408;51.032;9.410;2023-12-20T11:43:00;14.23;;;4.10;;
71572;SDS011;59408;51.032;9.410;2023-12-20T11:45:27;13.20;;;4.65;;
71572;SDS011;59408;51.032;9.410;2023-12-20T11:47:56;10.63;;;3.95;;
71572;SDS011;59408;51.032;9.410;2023-12-20T11:50:23;8.37;;;3.73;;
71572;SDS011;59408;51.032;9.410;2023-12-20T11:52:51;9.90;;;3.63;;
71572;SDS011;59408;51.032;9.410;2023-12-20T11:55:18;14.00;;;5.20;;
71572;SDS011;59408;51.032;9.410;2023-12-20T11:57:46;11.05;;;4.25;;
71572;SDS011;59408;51.032;9.410;2023-12-20T12:00:14;12.88;;;4.38;;
71572;SDS011;59408;51.032;9.410;2023-12-20T12:02:41;11.67;;;3.80;;
71572;SDS011;59408;51.032;9.410;2023-12-20T12:05:11;9.48;;;3.70;;
71572;SDS011;59408;51.032;9.410;2023-12-20T12:07:38;9.88;;;3.47;;
71572;SDS011;59408;51.032;9.410;2023-12-20T12:10:05;10.10;;;3.70;;
71572;SDS011;59408;51.032;9.410;2023-12-20T12:12:32;9.65;;;3.20;;
71572;SDS011;59408;51.032;9.410;2023-12-20T12:15:00;10.93;;;4.00;;
71572;SDS011;59408;51.032;9.410;2023-12-20T12:17:27;8.93;;;3.22;;
71572;SDS011;59408;51.032;9.410;2023-12-20T12:20:01;7.68;;;3.50;;
71572;SDS011;59408;51.032;9.410;2023-12-20T12:22:29;10.05;;;3.40;;
71572;SDS011;59408;51.032;9.410;2023-12-20T12:24:58;10.30;;;3.67;;
71572;SDS011;59408;51.032;9.410;2023-12-20T12:27:26;11.33;;;3.40;;
71572;SDS011;59408;51.032;9.410;2023-12-20T12:30:01;9.07;;;2.97;;
71572;SDS011;59408;51.032;9.410;2023-12-20T12:32:29;9.02;;;3.25;;
71572;SDS011;59408;51.032;9.410;2023-12-20T12:34:56;9.23;;;3.40;;
71572;SDS011;59408;51.032;9.410;2023-12-20T12:37:22;10.73;;;3.58;;
71572;SDS011;59408;51.032;9.410;2023-12-20T12:39:49;10.43;;;3.43;;
71572;SDS011;59408;51.032;9.410;2023-12-20T12:42:16;7.85;;;3.20;;
71572;SDS011;59408;51.032;9.410;2023-12-20T12:44:42;10.25;;;3.35;;
71572;SDS011;59408;51.032;9.410;2023-12-20T12:47:10;9.05;;;3.40;;
71572;SDS011;59408;51.032;9.410;2023-12-20T12:49:37;8.98;;;3.30;;
71572;SDS011;59408;51.032;9.410;2023-12-20T12:52:04;10.27;;;3.30;;
71572;SDS011;59408;51.032;9.410;2023-12-20T12:54:31;11.68;;;3.97;;
71572;SDS011;59408;51.032;9.410;2023-12-20T12:56:57;10.30;;;3.50;;
71572;SDS011;59408;51.032;9.410;2023-12-20T12:59:24;13.88;;;3.30;;
71572;SDS011;59408;51.032;9.410;2023-12-20T13:01:50;12.15;;;3.60;;
71572;SDS011;59408;51.032;9.410;2023-12-20T13:04:18;7.73;;;2.53;;
71572;SDS011;59408;51.032;9.410;2023-12-20T13:06:45;10.23;;;3.20;;
71572;SDS011;59408;51.032;9.410;2023-12-20T13:09:11;8.98;;;3.28;;
71572;SDS011;59408;51.032;9.410;2023-12-20T13:11:38;9.30;;;3.00;;
71572;SDS011;59408;51.032;9.410;2023-12-20T13:14:05;9.07;;;3.03;;
71572;SDS011;59408;51.032;9.410;2023-12-20T13:16:31;9.60;;;3.80;;
71572;SDS011;59408;51.032;9.410;2023-12-20T13:18:58;11.40;;;2.80;;
71572;SDS011;59408;51.032;9.410;2023-12-20T13:21:26;10.55;;;2.92;;
71572;SDS011;59408;51.032;9.410;2023-12-20T13:23:52;10.45;;;3.20;;
71572;SDS011;59408;51.032;9.410;2023-12-20T13:26:19;8.73;;;3.45;;
71572;SDS011;59408;51.032;9.410;2023-12-20T13:28:45;10.37;;;2.70;;
71572;SDS011;59408;51.032;9.410;2023-12-20T13:31:11;10.60;;;3.55;;
71572;SDS011;59408;51.032;9.410;2023-12-20T13:33:38;8.90;;;3.28;;
71572;SDS011;59408;51.032;9.410;2023-12-20T13:36:05;11.93;;;2.97;;
71572;SDS011;59408;51.032;9.410;2023-12-20T13:38:34;12.98;;;3.50;;
71572;SDS011;59408;51.032;9.410;2023-12-20T13:41:01;10.37;;;3.43;;
71572;SDS011;59408;51.032;9.410;2023-12-20T13:43:28;10.98;;;2.85;;
71572;SDS011;59408;51.032;9.410;2023-12-20T13:45:54;6.75;;;2.80;;
71572;SDS011;59408;51.032;9.410;2023-12-20T13:48:21;8.15;;;2.65;;
71572;SDS011;59408;51.032;9.410;2023-12-20T13:50:48;8.98;;;3.38;;
71572;SDS011;59408;51.032;9.410;2023-12-20T13:53:15;9.77;;;2.80;;
71572;SDS011;59408;51.032;9.410;2023-12-20T13:55:42;10.70;;;2.80;;
71572;SDS011;59408;51.032;9.410;2023-12-20T13:58:09;10.30;;;2.80;;
71572;SDS011;59408;51.032;9.410;2023-12-20T14:00:36;7.90;;;2.90;;
71572;SDS011;59408;51.032;9.410;2023-12-20T14:03:02;8.13;;;2.60;;
71572;SDS011;59408;51.032;9.410;2023-12-20T14:05:29;8.10;;;2.60;;
71572;SDS011;59408;51.032;9.410;2023-12-20T14:07:56;10.18;;;3.33;;
71572;SDS011;59408;51.032;9.410;2023-12-20T14:10:23;13.13;;;2.95;;
71572;SDS011;59408;51.032;9.410;2023-12-20T14:12:51;8.98;;;2.70;;
71572;SDS011;59408;51.032;9.410;2023-12-20T14:15:17;8.57;;;2.70;;
71572;SDS011;59408;51.032;9.410;2023-12-20T14:17:44;8.50;;;2.47;;
71572;SDS011;59408;51.032;9.410;2023-12-20T14:20:11;7.10;;;2.72;;
71572;SDS011;59408;51.032;9.410;2023-12-20T14:22:39;10.98;;;3.58;;
71572;SDS011;59408;51.032;9.410;2023-12-20T14:25:06;8.50;;;2.95;;
71572;SDS011;59408;51.032;9.410;2023-12-20T14:27:33;9.05;;;3.05;;
71572;SDS011;59408;51.032;9.410;2023-12-20T14:30:02;8.87;;;2.87;;
71572;SDS011;59408;51.032;9.410;2023-12-20T14:32:29;12.43;;;4.13;;
71572;SDS011;59408;51.032;9.410;2023-12-20T14:34:55;10.73;;;4.03;;
71572;SDS011;59408;51.032;9.410;2023-12-20T14:37:22;10.77;;;3.30;;
71572;SDS011;59408;51.032;9.410;2023-12-20T14:39:49;8.63;;;3.20;;
71572;SDS011;59408;51.032;9.410;2023-12-20T14:42:15;8.73;;;2.80;;
71572;SDS011;59408;51.032;9.410;2023-12-20T14:44:41;11.98;;;3.10;;